createdAt,value
2019-03-26T00:00:46.272Z,21.82
2019-03-26T00:03:15.998Z,18.50
2019-03-26T00:05:46.493Z,12.35
2019-03-26T00:08:16.271Z,17.82
2019-03-26T00:10:46.217Z,15.45
2019-03-26T00:13:15.959Z,18.52
2019-03-26T00:15:45.717Z,17.52
2019-03-26T00:18:15.460Z,13.95
2019-03-26T00:20:45.231Z,17.85
2019-03-26T00:23:14.939Z,16.00
2019-03-26T00:25:44.646Z,17.67
2019-03-26T00:28:14.436Z,17.60
2019-03-26T00:30:44.582Z,20.25
2019-03-26T00:33:14.354Z,17.80
2019-03-26T00:35:44.290Z,15.43
2019-03-26T00:38:14.105Z,18.42
2019-03-26T00:40:44.192Z,16.40
2019-03-26T00:43:13.893Z,13.95
2019-03-26T00:45:43.634Z,15.58
2019-03-26T00:48:13.360Z,12.80
2019-03-26T00:50:43.765Z,12.25
2019-03-26T00:53:13.467Z,14.65
2019-03-26T00:55:43.352Z,13.72
2019-03-26T00:58:13.094Z,12.37
2019-03-26T01:00:46.275Z,25.23
2019-03-26T01:03:16.015Z,17.05
2019-03-26T01:05:46.267Z,14.78
2019-03-26T01:08:16.309Z,15.50
2019-03-26T01:10:47.188Z,13.28
2019-03-26T01:13:17.456Z,16.20
2019-03-26T01:15:47.257Z,20.88
2019-03-26T01:18:17.410Z,14.75
2019-03-26T01:20:47.594Z,15.13
2019-03-26T01:23:17.598Z,15.70
2019-03-26T01:25:47.910Z,16.73
2019-03-26T01:28:18.188Z,15.10
2019-03-26T01:30:49.021Z,17.55
2019-03-26T01:33:19.523Z,13.88
2019-03-26T01:35:50.516Z,19.62
2019-03-26T01:38:21.736Z,23.18
2019-03-26T01:40:52.480Z,21.20
2019-03-26T01:43:23.067Z,11.53
2019-03-26T01:45:53.776Z,17.60
2019-03-26T01:48:24.401Z,14.85
2019-03-26T01:50:56.192Z,14.63
2019-03-26T01:53:26.541Z,15.05
2019-03-26T01:55:57.944Z,21.27
2019-03-26T01:58:27.979Z,14.60
2019-03-26T02:00:58.395Z,20.65
2019-03-26T02:03:28.561Z,14.40
2019-03-26T02:05:58.256Z,23.50
2019-03-26T02:08:28.504Z,17.37
2019-03-26T02:10:58.808Z,34.60
2019-03-26T02:13:29.007Z,20.27
2019-03-26T02:15:59.209Z,23.42
2019-03-26T02:18:29.900Z,20.00
2019-03-26T02:21:00.928Z,23.12
2019-03-26T02:23:32.131Z,19.50
2019-03-26T02:26:02.580Z,22.90
2019-03-26T02:28:35.732Z,28.85
2019-03-26T02:31:06.146Z,22.00
2019-03-26T02:33:37.105Z,29.87
2019-03-26T02:36:07.374Z,19.12
2019-03-26T02:38:38.272Z,30.65
2019-03-26T02:41:09.033Z,24.37
2019-03-26T02:43:39.438Z,24.37
2019-03-26T02:46:09.902Z,22.65
2019-03-26T02:48:40.191Z,23.90
2019-03-26T02:51:10.492Z,26.80
2019-03-26T02:53:40.354Z,23.38
2019-03-26T02:56:10.496Z,19.75
2019-03-26T02:58:40.432Z,22.62
2019-03-26T03:01:11.166Z,25.35
2019-03-26T03:03:41.224Z,21.40
2019-03-26T03:06:11.523Z,19.90
2019-03-26T03:08:41.856Z,23.90
2019-03-26T03:11:12.217Z,19.60
2019-03-26T03:13:42.289Z,23.38
2019-03-26T03:16:12.021Z,16.10
2019-03-26T03:18:42.229Z,16.30
2019-03-26T03:21:11.952Z,21.30
2019-03-26T03:23:41.731Z,25.70
2019-03-26T03:26:12.010Z,18.50
2019-03-26T03:28:42.315Z,17.10
2019-03-26T03:31:12.343Z,20.05
2019-03-26T03:33:42.364Z,21.00
2019-03-26T03:36:12.082Z,20.17
2019-03-26T03:38:42.202Z,24.80
2019-03-26T03:41:11.996Z,28.60
2019-03-26T03:43:41.756Z,27.75
2019-03-26T03:46:11.968Z,21.12
2019-03-26T03:48:41.993Z,26.73
2019-03-26T03:51:14.209Z,20.80
2019-03-26T03:53:45.067Z,16.52
2019-03-26T03:56:17.148Z,19.67
2019-03-26T03:58:51.161Z,21.52
2019-03-26T04:01:20.898Z,12.75
2019-03-26T04:03:50.665Z,21.87
2019-03-26T04:06:21.583Z,19.98
2019-03-26T04:08:52.344Z,20.80
2019-03-26T04:11:23.825Z,21.57
2019-03-26T04:13:55.428Z,23.90
2019-03-26T04:16:25.852Z,22.82
2019-03-26T04:18:56.339Z,16.80
2019-03-26T04:21:26.640Z,25.80
2019-03-26T04:23:57.199Z,26.60
2019-03-26T04:26:28.242Z,23.10
2019-03-26T04:28:58.707Z,22.40
2019-03-26T04:31:29.332Z,23.67
2019-03-26T04:33:59.334Z,25.75
2019-03-26T04:36:29.978Z,19.40
2019-03-26T04:39:00.168Z,24.77
2019-03-26T04:41:30.327Z,19.20
2019-03-26T04:44:00.682Z,27.45
2019-03-26T04:46:31.208Z,22.32
2019-03-26T04:49:01.289Z,21.10
2019-03-26T04:51:31.634Z,28.10
2019-03-26T04:54:01.685Z,24.40
2019-03-26T04:56:31.952Z,25.43
2019-03-26T04:59:02.048Z,21.87
2019-03-26T05:01:32.193Z,32.40
2019-03-26T05:04:02.667Z,30.75
2019-03-26T05:06:37.957Z,28.98
2019-03-26T05:09:05.996Z,36.20
2019-03-26T05:11:36.281Z,34.08
2019-03-26T05:14:06.196Z,39.98
2019-03-26T05:16:36.028Z,22.22
2019-03-26T05:19:05.853Z,36.93
2019-03-26T05:21:35.713Z,25.62
2019-03-26T05:24:05.606Z,29.85
2019-03-26T05:26:35.537Z,23.47
2019-03-26T05:29:05.327Z,33.15
2019-03-26T05:31:35.341Z,23.87
2019-03-26T05:34:05.055Z,28.75
2019-03-26T05:36:35.432Z,27.62
2019-03-26T05:39:06.198Z,30.88
2019-03-26T05:41:36.385Z,25.92
2019-03-26T05:44:06.922Z,37.73
2019-03-26T05:46:37.714Z,24.50
2019-03-26T05:49:07.437Z,27.48
2019-03-26T05:51:37.773Z,22.85
2019-03-26T05:54:07.970Z,30.52
2019-03-26T05:56:37.967Z,35.45
2019-03-26T05:59:07.755Z,21.30
2019-03-26T06:01:37.891Z,30.55
2019-03-26T06:04:07.665Z,29.00
2019-03-26T06:06:38.159Z,26.85
2019-03-26T06:09:08.455Z,23.60
2019-03-26T06:11:38.938Z,32.17
2019-03-26T06:14:08.977Z,29.35
2019-03-26T06:16:39.537Z,26.15
2019-03-26T06:19:09.602Z,33.45
2019-03-26T06:21:39.325Z,34.65
2019-03-26T06:24:09.651Z,29.57
2019-03-26T06:26:39.857Z,29.57
2019-03-26T06:29:09.870Z,27.55
2019-03-26T06:31:40.664Z,30.32
2019-03-26T06:34:10.741Z,22.73
2019-03-26T06:36:41.337Z,29.80
2019-03-26T06:39:12.105Z,23.57
2019-03-26T06:41:42.505Z,23.12
2019-03-26T06:44:13.104Z,25.70
2019-03-26T06:46:43.492Z,22.30
2019-03-26T06:49:14.123Z,23.07
2019-03-26T06:51:44.943Z,27.90
2019-03-26T06:54:15.381Z,21.97
2019-03-26T06:56:46.179Z,18.52
2019-03-26T06:59:17.697Z,20.97
2019-03-26T07:01:47.985Z,16.40
2019-03-26T07:04:18.368Z,20.80
2019-03-26T07:06:49.066Z,19.70
2019-03-26T07:09:19.756Z,21.93
2019-03-26T07:11:50.017Z,20.90
2019-03-26T07:14:20.307Z,22.65
2019-03-26T07:16:50.730Z,16.95
2019-03-26T07:19:21.203Z,19.52
2019-03-26T07:21:51.936Z,15.45
2019-03-26T07:24:22.528Z,19.45
2019-03-26T07:26:53.318Z,17.35
2019-03-26T07:29:23.638Z,17.02
2019-03-26T07:31:53.917Z,12.55
2019-03-26T07:34:24.753Z,21.60
2019-03-26T07:36:56.054Z,23.40
2019-03-26T07:39:27.417Z,14.93
2019-03-26T07:41:58.385Z,20.68
2019-03-26T07:44:29.606Z,22.70
2019-03-26T07:47:01.020Z,12.73
2019-03-26T07:49:31.786Z,9.78
2019-03-26T07:52:02.143Z,12.20
2019-03-26T07:54:33.236Z,11.70
2019-03-26T07:57:03.362Z,21.23
2019-03-26T07:59:33.416Z,14.85
2019-03-26T08:02:03.547Z,21.52
2019-03-26T08:04:33.735Z,17.40
2019-03-26T08:07:04.107Z,20.60
2019-03-26T08:09:34.149Z,13.80
2019-03-26T08:12:04.389Z,16.65
2019-03-26T08:14:34.278Z,12.35
2019-03-26T08:17:04.457Z,13.43
2019-03-26T08:19:34.382Z,13.18
2019-03-26T08:22:04.269Z,11.35
2019-03-26T08:24:34.287Z,13.32
2019-03-26T08:27:04.406Z,15.28
2019-03-26T08:29:34.389Z,19.85
2019-03-26T08:32:05.430Z,12.25
2019-03-26T08:34:35.400Z,10.03
2019-03-26T08:37:05.820Z,8.85
2019-03-26T08:39:36.982Z,7.17
2019-03-26T08:42:07.068Z,12.07
2019-03-26T08:44:37.308Z,10.98
2019-03-26T08:47:07.536Z,10.58
2019-03-26T08:49:37.655Z,6.62
2019-03-26T08:52:07.821Z,10.90
2019-03-26T08:54:37.885Z,13.25
2019-03-26T08:57:08.157Z,10.38
2019-03-26T08:59:38.568Z,13.15
2019-03-26T09:02:08.636Z,10.93
2019-03-26T09:04:38.645Z,6.50
2019-03-26T09:07:11.059Z,8.63
2019-03-26T09:09:41.022Z,9.08
2019-03-26T09:12:11.391Z,10.95
2019-03-26T09:14:41.728Z,4.62
2019-03-26T09:17:11.772Z,8.90
2019-03-26T09:19:42.074Z,7.65
2019-03-26T09:22:13.093Z,6.90
2019-03-26T09:24:44.146Z,5.47
2019-03-26T09:27:14.343Z,6.10
2019-03-26T09:29:45.236Z,7.12
2019-03-26T09:32:17.529Z,7.72
2019-03-26T09:34:47.739Z,4.45
2019-03-26T09:37:17.813Z,7.25
2019-03-26T09:39:48.088Z,5.25
2019-03-26T09:42:18.259Z,5.28
2019-03-26T09:44:48.736Z,4.53
2019-03-26T09:47:19.352Z,8.33
2019-03-26T09:49:50.130Z,4.97
2019-03-26T09:52:20.171Z,3.47
2019-03-26T09:54:50.368Z,3.30
2019-03-26T09:57:20.508Z,5.72
2019-03-26T09:59:50.779Z,4.08
2019-03-26T10:02:21.245Z,5.42
2019-03-26T10:04:51.244Z,4.72
2019-03-26T10:07:22.021Z,5.20
2019-03-26T10:09:51.975Z,6.35
2019-03-26T10:12:22.646Z,5.17
2019-03-26T10:14:53.216Z,10.03
2019-03-26T10:17:24.068Z,4.90
2019-03-26T10:19:54.582Z,4.35
2019-03-26T10:22:25.085Z,3.85
2019-03-26T10:24:55.067Z,5.60
2019-03-26T10:27:25.727Z,7.70
2019-03-26T10:29:56.339Z,4.37
2019-03-26T10:32:26.480Z,6.92
2019-03-26T10:34:56.852Z,5.00
2019-03-26T10:37:30.361Z,6.95
2019-03-26T10:40:01.101Z,5.22
2019-03-26T10:42:32.032Z,5.25
2019-03-26T10:45:02.389Z,5.92
2019-03-26T10:47:32.891Z,6.58
2019-03-26T10:50:03.317Z,7.12
2019-03-26T10:52:34.375Z,3.77
2019-03-26T10:55:05.108Z,3.05
2019-03-26T10:57:34.971Z,4.58
2019-03-26T11:00:05.533Z,3.08
2019-03-26T11:02:35.383Z,4.60
2019-03-26T11:05:06.023Z,4.03
2019-03-26T11:07:35.810Z,5.55
2019-03-26T11:10:05.955Z,5.62
2019-03-26T11:12:35.923Z,4.03
2019-03-26T11:15:06.791Z,3.77
2019-03-26T11:17:37.104Z,3.30
2019-03-26T11:20:08.685Z,3.60
2019-03-26T11:22:38.895Z,7.72
2019-03-26T11:25:12.195Z,3.70
2019-03-26T11:27:41.324Z,4.70
2019-03-26T11:30:11.366Z,9.98
2019-03-26T11:32:42.117Z,4.15
2019-03-26T11:35:11.891Z,6.20
2019-03-26T11:37:41.818Z,5.75
2019-03-26T11:40:12.695Z,5.72
2019-03-26T11:42:42.592Z,6.15
2019-03-26T11:45:14.347Z,4.87
2019-03-26T11:47:44.136Z,2.95
2019-03-26T11:50:14.354Z,5.42
2019-03-26T11:52:44.063Z,4.58
2019-03-26T11:55:14.131Z,3.65
2019-03-26T11:57:44.029Z,4.12
2019-03-26T12:00:16.901Z,4.20
2019-03-26T12:02:46.879Z,3.70
2019-03-26T12:05:17.267Z,4.10
2019-03-26T12:07:47.113Z,7.15
2019-03-26T12:10:17.460Z,5.67
2019-03-26T12:12:47.633Z,7.70
2019-03-26T12:15:17.887Z,2.67
2019-03-26T12:17:48.418Z,6.58
2019-03-26T12:20:18.492Z,6.12
2019-03-26T12:22:48.522Z,5.40
2019-03-26T12:25:18.616Z,7.05
2019-03-26T12:27:48.852Z,8.43
2019-03-26T12:30:31.988Z,3.12
2019-03-26T12:33:02.207Z,5.97
2019-03-26T12:35:32.069Z,8.25
2019-03-26T12:38:03.254Z,5.78
2019-03-26T12:40:33.015Z,8.05
2019-03-26T12:43:02.925Z,5.30
2019-03-26T12:45:32.652Z,4.80
2019-03-26T12:48:02.380Z,5.47
2019-03-26T12:50:32.413Z,8.50
2019-03-26T12:53:02.344Z,5.45
2019-03-26T12:55:32.136Z,4.10
2019-03-26T12:58:01.844Z,3.63
2019-03-26T13:00:34.921Z,7.83
2019-03-26T13:03:04.635Z,3.93
2019-03-26T13:05:34.320Z,4.33
2019-03-26T13:08:04.436Z,3.03
2019-03-26T13:10:34.146Z,6.47
2019-03-26T13:13:04.078Z,7.73
2019-03-26T13:15:33.801Z,5.58
2019-03-26T13:18:03.545Z,5.93
2019-03-26T13:20:33.254Z,6.60
2019-03-26T13:23:02.985Z,6.30
2019-03-26T13:25:32.679Z,5.78
2019-03-26T13:28:02.528Z,8.58
2019-03-26T13:30:32.453Z,8.73
2019-03-26T13:33:03.338Z,3.62
2019-03-26T13:35:34.471Z,5.92
2019-03-26T13:38:04.525Z,8.10
2019-03-26T13:40:35.536Z,7.28
2019-03-26T13:43:05.851Z,9.25
2019-03-26T13:45:35.638Z,8.40
2019-03-26T13:48:05.656Z,6.55
2019-03-26T13:50:35.854Z,6.90
2019-03-26T13:53:06.445Z,9.43
2019-03-26T13:55:36.360Z,4.85
2019-03-26T13:58:06.539Z,5.83
2019-03-26T14:00:41.960Z,6.28
2019-03-26T14:03:11.902Z,8.10
2019-03-26T14:05:41.607Z,3.83
2019-03-26T14:08:11.329Z,6.92
2019-03-26T14:10:41.780Z,6.37
2019-03-26T14:13:11.454Z,10.00
2019-03-26T14:15:41.649Z,9.20
2019-03-26T14:18:11.570Z,7.40
2019-03-26T14:20:41.290Z,6.55
2019-03-26T14:23:10.983Z,8.43
2019-03-26T14:25:41.013Z,6.60
2019-03-26T14:28:10.727Z,8.25
2019-03-26T14:30:42.493Z,14.78
2019-03-26T14:33:13.439Z,6.97
2019-03-26T14:35:44.021Z,10.80
2019-03-26T14:38:14.825Z,13.70
2019-03-26T14:40:54.545Z,8.03
2019-03-26T14:43:18.359Z,11.57
2019-03-26T14:45:49.533Z,13.80
2019-03-26T14:48:21.248Z,6.78
2019-03-26T14:50:51.945Z,12.05
2019-03-26T14:53:23.219Z,6.30
2019-03-26T14:55:53.974Z,7.87
2019-03-26T14:58:24.972Z,6.37
2019-03-26T15:00:55.657Z,5.80
2019-03-26T15:03:25.772Z,9.95
2019-03-26T15:05:56.386Z,8.83
2019-03-26T15:08:26.612Z,9.18
2019-03-26T15:11:07.602Z,11.18
2019-03-26T15:13:29.238Z,16.15
2019-03-26T15:15:59.249Z,8.98
2019-03-26T15:18:28.947Z,8.68
2019-03-26T15:20:59.305Z,11.10
2019-03-26T15:23:28.989Z,10.13
2019-03-26T15:25:59.319Z,10.20
2019-03-26T15:28:29.202Z,14.68
2019-03-26T15:30:59.945Z,13.88
2019-03-26T15:33:29.846Z,17.57
2019-03-26T15:35:59.590Z,15.78
2019-03-26T15:38:29.855Z,16.52
2019-03-26T15:40:59.824Z,12.58
2019-03-26T15:43:29.600Z,16.90
2019-03-26T15:45:59.690Z,11.45
2019-03-26T15:48:29.801Z,11.45
2019-03-26T15:50:59.939Z,12.60
2019-03-26T15:53:29.701Z,13.53
2019-03-26T15:55:59.423Z,15.45
2019-03-26T15:58:29.169Z,16.40
2019-03-26T16:00:58.926Z,18.00
2019-03-26T16:03:28.638Z,16.55
2019-03-26T16:05:58.604Z,18.70
2019-03-26T16:08:28.346Z,14.25
2019-03-26T16:10:58.161Z,13.78
2019-03-26T16:13:27.962Z,14.10
2019-03-26T16:15:58.477Z,15.18
2019-03-26T16:18:28.196Z,8.93
2019-03-26T16:20:58.349Z,12.30
2019-03-26T16:23:28.238Z,14.28
2019-03-26T16:25:57.964Z,12.40
2019-03-26T16:28:27.919Z,18.25
2019-03-26T16:30:58.272Z,17.20
2019-03-26T16:33:29.090Z,22.20
2019-03-26T16:36:00.825Z,19.98
2019-03-26T16:38:32.124Z,12.37
2019-03-26T16:41:02.591Z,18.32
2019-03-26T16:43:33.526Z,18.02
2019-03-26T16:46:03.838Z,14.38
2019-03-26T16:48:34.549Z,29.52
2019-03-26T16:51:04.749Z,14.75
2019-03-26T16:53:35.025Z,10.93
2019-03-26T16:56:05.288Z,12.03
2019-03-26T16:58:35.464Z,11.85
2019-03-26T17:01:05.692Z,15.45
2019-03-26T17:03:35.926Z,15.95
2019-03-26T17:06:05.897Z,12.40
2019-03-26T17:08:36.360Z,11.90
2019-03-26T17:11:06.395Z,15.13
2019-03-26T17:13:36.920Z,26.35
2019-03-26T17:16:07.648Z,16.37
2019-03-26T17:18:38.490Z,11.57
2019-03-26T17:21:09.337Z,9.45
2019-03-26T17:23:39.160Z,16.15
2019-03-26T17:26:08.973Z,11.70
2019-03-26T17:28:39.024Z,13.22
2019-03-26T17:50:05.500Z,16.70
2019-03-26T17:55:30.774Z,14.95
2019-03-26T17:58:00.625Z,9.08
2019-03-26T18:00:39.351Z,15.38
2019-03-26T18:03:09.149Z,11.85
2019-03-26T18:05:38.839Z,11.18
2019-03-26T18:08:08.606Z,17.65
2019-03-26T18:10:38.639Z,13.15
2019-03-26T18:13:08.502Z,7.53
2019-03-26T18:15:38.244Z,11.22
2019-03-26T18:18:08.285Z,10.95
2019-03-26T18:20:38.163Z,12.55
2019-03-26T18:23:07.908Z,17.25
2019-03-26T18:25:37.661Z,16.87
2019-03-26T18:28:07.372Z,15.23
2019-03-26T18:30:37.064Z,14.60
2019-03-26T18:33:06.870Z,13.48
2019-03-26T18:35:36.633Z,15.85
2019-03-26T18:38:06.395Z,15.68
2019-03-26T18:40:36.129Z,14.18
2019-03-26T18:43:05.998Z,13.85
2019-03-26T18:45:35.716Z,9.78
2019-03-26T18:48:05.859Z,17.15
2019-03-26T18:50:35.958Z,13.90
2019-03-26T18:53:06.160Z,11.75
2019-03-26T18:55:36.193Z,18.87
2019-03-26T18:58:05.934Z,16.25
2019-03-26T19:00:38.619Z,18.65
2019-03-26T19:03:09.882Z,14.05
2019-03-26T19:05:40.028Z,16.40
2019-03-26T19:08:10.282Z,17.00
2019-03-26T19:10:40.623Z,10.10
2019-03-26T19:13:19.141Z,17.50
2019-03-26T19:15:41.882Z,11.60
2019-03-26T19:18:11.645Z,15.00
2019-03-26T19:20:41.368Z,7.97
2019-03-26T19:23:11.072Z,12.07
2019-03-26T19:25:40.961Z,24.27
2019-03-26T19:28:10.757Z,21.25
2019-03-26T19:30:40.498Z,14.00
2019-03-26T19:33:10.245Z,17.95
2019-03-26T19:35:40.152Z,14.40
2019-03-26T19:38:09.854Z,15.45
2019-03-26T19:40:39.612Z,22.42
2019-03-26T19:43:11.314Z,20.85
2019-03-26T19:45:40.834Z,18.20
2019-03-26T19:48:10.549Z,24.10
2019-03-26T19:50:40.313Z,43.83
2019-03-26T19:53:10.104Z,19.15
2019-03-26T19:55:40.047Z,14.98
2019-03-26T19:58:09.934Z,20.00
2019-03-26T20:00:39.705Z,12.28
2019-03-26T20:03:09.419Z,12.18
2019-03-26T20:05:39.208Z,10.18
2019-03-26T20:08:09.090Z,13.55
2019-03-26T20:10:38.865Z,23.70
2019-03-26T20:13:08.593Z,28.57
2019-03-26T20:15:38.397Z,21.73
2019-03-26T20:18:08.251Z,22.48
2019-03-26T20:20:38.140Z,30.48
2019-03-26T20:23:08.027Z,23.77
2019-03-26T20:25:37.795Z,26.70
2019-03-26T20:28:07.562Z,27.17
2019-03-26T20:30:37.269Z,23.35
2019-03-26T20:33:07.323Z,15.18
2019-03-26T20:35:37.044Z,27.35
2019-03-26T20:38:06.998Z,22.55
2019-03-26T20:40:36.818Z,30.02
2019-03-26T20:43:06.593Z,21.60
2019-03-26T20:45:36.541Z,24.35
2019-03-26T20:48:06.484Z,22.15
2019-03-26T20:50:36.498Z,18.60
2019-03-26T20:53:06.792Z,23.25
2019-03-26T20:55:36.985Z,16.30
2019-03-26T20:58:06.731Z,16.00
2019-03-26T21:00:39.775Z,12.78
2019-03-26T21:03:09.735Z,16.27
2019-03-26T21:05:39.992Z,21.20
2019-03-26T21:08:09.771Z,22.95
2019-03-26T21:10:39.547Z,24.27
2019-03-26T21:13:09.627Z,22.10
2019-03-26T21:15:42.598Z,19.05
2019-03-26T21:18:12.639Z,25.05
2019-03-26T21:20:42.510Z,16.37
2019-03-26T21:23:12.317Z,17.05
2019-03-26T21:25:42.263Z,17.62
2019-03-26T21:28:12.127Z,23.02
2019-03-26T21:30:41.883Z,16.35
2019-03-26T21:33:11.660Z,15.30
2019-03-26T21:35:41.384Z,15.58
2019-03-26T21:38:11.433Z,22.95
2019-03-26T21:40:41.227Z,20.25
2019-03-26T21:43:11.054Z,19.23
2019-03-26T21:45:41.551Z,21.93
2019-03-26T21:48:11.757Z,21.48
2019-03-26T21:50:41.483Z,31.02
2019-03-26T21:53:13.093Z,24.02
2019-03-26T21:55:42.882Z,18.25
2019-03-26T21:58:13.531Z,21.80
2019-03-26T22:02:39.812Z,26.27
2019-03-26T22:05:10.480Z,18.52
2019-03-26T22:07:42.515Z,23.12
2019-03-26T22:10:31.223Z,19.42
2019-03-26T22:13:00.929Z,16.65
2019-03-26T22:15:30.660Z,15.28
2019-03-26T22:18:00.395Z,21.42
2019-03-26T22:20:30.124Z,26.65
2019-03-26T22:22:59.912Z,19.80
2019-03-26T22:25:29.680Z,17.25
2019-03-26T22:27:59.700Z,17.20
2019-03-26T22:30:29.428Z,22.35
2019-03-26T22:32:59.307Z,16.57
2019-03-26T22:35:29.366Z,16.57
2019-03-26T22:37:59.164Z,18.87
2019-03-26T22:40:29.082Z,19.23
2019-03-26T22:42:58.984Z,17.75
2019-03-26T22:45:28.692Z,14.93
2019-03-26T22:47:58.635Z,19.95
2019-03-26T22:50:28.421Z,12.43
2019-03-26T22:52:58.347Z,20.32
2019-03-26T22:55:28.049Z,15.80
2019-03-26T22:57:57.893Z,19.95
2019-03-26T23:00:29.514Z,17.73
2019-03-26T23:02:59.541Z,16.32
2019-03-26T23:05:29.238Z,14.07
2019-03-26T23:07:59.249Z,14.00
2019-03-26T23:10:28.953Z,16.10
2019-03-26T23:12:59.040Z,17.05
2019-03-26T23:15:29.481Z,15.72
2019-03-26T23:17:59.173Z,19.45
2019-03-26T23:20:28.866Z,15.05
2019-03-26T23:22:58.657Z,16.57
2019-03-26T23:25:28.644Z,18.60
2019-03-26T23:27:59.254Z,15.95
2019-03-26T23:30:29.035Z,13.65
2019-03-26T23:32:58.856Z,15.32
2019-03-26T23:35:28.542Z,20.55
2019-03-26T23:37:58.287Z,19.45
2019-03-26T23:40:28.455Z,17.20
2019-03-26T23:42:58.533Z,19.70
2019-03-26T23:45:28.255Z,14.87
2019-03-26T23:47:57.923Z,10.55
2019-03-26T23:50:27.649Z,17.48
2019-03-26T23:52:57.488Z,14.13
2019-03-26T23:55:27.354Z,14.40
2019-03-26T23:57:57.557Z,15.50
